Latest Coastal Weather Observations for Hobart

IDT60701

Issued at 5:41 am EDT Sunday 7 February 2016 (issued every 10 minutes, with the page automatically refreshed every 10 minutes)

About coastal observations | Map of coastal stations | Coastal observations for TAS | Marine services | Other Formats
Station Details ID: 094029 Name: HOBART (ELLERSLIE ROAD) Lat: -42.89 Lon: 147.33 Height: 50.5 m
Data from the previous 72 hours. | See also: Recent months at Hobart
Date/Time
EDT
Temp

°C
Wind Pressure Rain
since 9am
mm
Weather Cloud Vis
km
Sea
Height
m
Swell
Dir
 
Speed
knots
Gust
knots
hPa Trend Height
m
Period
s
Dir
07/05:30am 16.2 W 4 5 1016.8 - 0.0 - - - - - - -
07/05:00am 16.8 WNW 4 5 1016.6 - 0.0 - - - - - - -
07/04:30am 17.0 NW 5 7 1016.4 - 0.0 - - - - - - -
07/04:00am 17.3 CALM 0 0 1016.4 - 0.0 - - - - - - -
07/03:30am 16.8 NNW 1 3 1016.6 - 0.0 - - - - - - -
07/03:00am 16.4 WNW 3 4 1016.8 - 0.0 - - - - - - -
07/02:30am 16.5 NNW 4 5 1016.7 - 0.0 - - - - - - -
07/02:00am 16.6 WNW 4 4 1017.0 - 0.0 - - - - - - -
07/01:30am 16.8 WSW 5 6 1017.2 - 0.0 - - - - - - -
07/01:00am 16.9 WSW 6 7 1017.4 - 0.0 - - - - - - -
07/12:30am 17.3 SW 5 7 1017.4 - 0.0 - - - - - - -
07/12:00am 17.5 SW 5 7 1017.5 - 0.0 - - - - - - -
 
Date/Time
EDT
Temp

°C
Wind Pressure Rain
since 9am
mm
Weather Cloud Vis
km
Sea
Height
m
Swell
Dir
 
Speed
knots
Gust
knots
hPa Trend Height
m
Period
s
Dir
06/11:30pm 17.7 SW 3 5 1017.5 - 0.0 - - - - - - -
06/11:00pm 18.0 SW 5 6 1017.7 - 0.0 - - - - - - -
06/10:30pm 18.5 SSW 5 5 1018.0 - 0.0 - - - - - - -
06/10:00pm 19.0 S 5 7 1018.2 - 0.0 - - - - - - -
06/09:30pm 19.1 SSW 5 7 1018.1 - 0.0 - - - - - - -
06/09:00pm 19.2 S 5 8 1017.9 - 0.0 - - - - - - -
06/08:30pm 19.4 SSW 8 12 1018.0 - 0.0 - - - - - - -
06/08:00pm 19.8 S 7 11 1018.0 - 0.0 - - - - - - -
06/07:30pm 20.4 SE 6 9 1017.9 - 0.0 - - - - - - -
06/07:00pm 20.7 SE 6 8 1017.8 - 0.0 - - - - - - -
06/06:30pm 20.9 SSW 7 11 1017.7 - 0.0 - - - - - - -
06/06:00pm 20.9 SSW 9 13 1017.8 - 0.0 - - - - - - -
06/05:30pm 21.4 S 9 14 1017.9 - 0.0 - - - - - - -
06/05:00pm 21.7 SSE 10 15 1018.1 - 0.0 - - - - - - -
06/04:30pm 21.6 S 12 17 1018.4 - 0.0 - - - - - - -
06/04:00pm 21.8 S 12 17 1018.6 - 0.0 - - - - - - -
06/03:30pm 22.9 SSE 11 16 1018.8 - 0.0 - - - - - - -
06/03:00pm 22.2 SE 13 18 1019.0 - 0.0 - - - - - - -
06/02:30pm 22.2 SE 12 17 1019.3 - 0.0 - - - - - - -
06/02:00pm 22.8 SE 14 18 1019.4 - 0.0 - - - - - - -
06/01:30pm 23.1 S 12 16 1019.5 - 0.0 - - - - - - -
06/01:00pm 22.9 SSE 10 15 1019.6 - 0.0 - - - - - - -
06/12:30pm 23.1 SE 10 13 1019.7 - 0.0 - - - - - - -
06/12:00pm 23.6 SE 10 12 1019.9 - 0.0 - - - - - - -
06/11:30am 22.5 SE 8 10 1020.1 - 0.0 - - - - - - -
06/11:00am 22.8 ENE 5 6 1020.3 - 0.0 - - - - - - -
06/10:30am 21.9 ESE 6 8 1020.5 - 0.0 - - - - - - -
06/10:00am 21.2 ENE 4 7 1020.7 - 0.0 - - - - - - -
06/09:30am 21.8 N 3 5 1020.9 - 0.0 - - - - - - -
06/09:00am 20.8 NNW 4 6 1021.0 - 0.0 - - - - - - -
06/08:30am 20.1 NNW 5 7 1020.8 - 0.0 - - - - - - -
06/08:00am 19.0 NW 3 5 1020.6 - 0.0 - - - - - - -
06/07:30am 17.5 W 4 6 1020.4 - 0.0 - - - - - - -
06/07:00am 16.7 W 5 7 1020.2 - 0.0 - - - - - - -
06/06:30am 16.5 NNW 6 9 1019.9 - 0.0 - - - - - - -
06/06:00am 16.7 NNW 7 10 1019.8 - 0.0 - - - - - - -
06/05:30am 16.9 NNW 6 9 1019.8 - 0.0 - - - - - - -
06/05:00am 17.2 N 7 11 1019.7 - 0.0 - - - - - - -
06/04:30am 17.4 N 7 11 1019.9 - 0.0 - - - - - - -
06/04:00am 17.8 N 7 9 1020.3 - 0.0 - - - - - - -
06/03:30am 17.7 N 5 8 1020.8 - 0.0 - - - - - - -
06/03:00am 17.7 N 5 8 1021.2 - 0.0 - - - - - - -
06/02:30am 17.8 N 5 8 1021.6 - 0.0 - - - - - - -
06/02:00am 17.6 N 5 7 1022.0 - 0.0 - - - - - - -
06/01:30am 17.4 N 5 7 1022.4 - 0.0 - - - - - - -
06/01:00am 17.4 N 4 7 1022.9 - 0.0 - - - - - - -
06/12:30am 17.3 CALM 0 3 1023.3 - 0.0 - - - - - - -
06/12:00am 17.1 CALM 0 2 1023.6 - 0.0 - - - - - - -
 
Date/Time
EDT
Temp

°C
Wind Pressure Rain
since 9am
mm
Weather Cloud Vis
km
Sea
Height
m
Swell
Dir
 
Speed
knots
Gust
knots
hPa Trend Height
m
Period
s
Dir
05/11:30pm 17.1 SSE 1 5 1023.8 - 0.0 - - - - - - -
05/11:00pm 17.1 SSE 4 5 1024.0 - 0.0 - - - - - - -
05/10:30pm 17.1 SSE 6 8 1024.2 - 0.0 - - - - - - -
05/10:00pm 17.1 SSE 7 10 1024.2 - 0.0 - - - - - - -
05/09:30pm 17.2 SE 7 10 1024.1 - 0.0 - - - - - - -
05/09:00pm 17.2 SE 9 11 1023.7 - 0.0 - - - - - - -
05/08:30pm 17.3 SSE 7 10 1023.4 - 0.0 - - - - - - -
05/08:00pm 17.3 SSE 11 15 1023.1 - 0.0 - - - - - - -
05/07:30pm 17.6 SSE 10 13 1022.9 - 0.0 - - - - - - -
05/07:00pm 17.9 SSE 10 15 1022.5 - 0.0 - - - - - - -
05/06:30pm 18.1 SE 14 19 1022.4 - 0.0 - - - - - - -
05/06:00pm 18.7 SE 15 20 1022.2 - 0.0 - - - - - - -
05/05:30pm 19.0 SE 16 21 1022.2 - 0.0 - - - - - - -
05/05:00pm 19.6 SE 15 19 1022.1 - 0.0 - - - - - - -
05/04:30pm 19.8 SE 15 19 1022.1 - 0.0 - - - - - - -
05/04:00pm 20.8 SE 14 19 1022.0 - 0.0 - - - - - - -
05/03:30pm 21.7 SE 14 18 1021.8 - 0.0 - - - - - - -
05/03:00pm 22.1 SE 11 15 1021.7 - 0.0 - - - - - - -
05/02:30pm 22.0 SE 11 13 1021.9 - 0.0 - - - - - - -
05/02:00pm 21.5 SE 9 11 1022.1 - 0.0 - - - - - - -
05/01:30pm 20.2 SE 10 13 1022.5 - 0.0 - - - - - - -
05/01:00pm 20.6 SE 9 12 1022.8 - 0.0 - - - - - - -
05/12:30pm 20.0 SE 8 11 1023.1 - 0.0 - - - - - - -
05/12:00pm 19.8 SE 8 12 1023.5 - 0.0 - - - - - - -
05/11:30am 19.1 ESE 7 9 1023.8 - 0.0 - - - - - - -
05/11:00am 18.6 SSE 6 8 1023.8 - 0.0 - - - - - - -
05/10:30am 17.5 ESE 5 7 1023.9 - 0.0 - - - - - - -
05/10:00am 17.0 ESE 6 8 1023.9 - 0.0 - - - - - - -
05/09:30am 16.7 E 5 7 1023.9 - 0.0 - - - - - - -
05/09:00am 16.8 SE 5 7 1023.8 - 0.0 - - - - - - -
05/08:30am 16.3 ESE 5 7 1023.6 - 0.0 - - - - - - -
05/08:00am 16.2 SE 4 5 1023.4 - 0.0 - - - - - - -
05/07:30am 16.0 SE 1 4 1023.2 - 0.0 - - - - - - -
05/07:00am 16.1 E 4 6 1022.9 - 0.0 - - - - - - -
05/06:30am 15.9 E 3 5 1022.7 - 0.0 - - - - - - -
05/06:00am 15.9 E 3 5 1022.5 - 0.0 - - - - - - -
05/05:30am 15.7 CALM 0 2 1021.9 - 0.0 - - - - - - -
05/05:00am 15.6 CALM 0 0 1021.6 - 0.0 - - - - - - -
05/04:30am 15.6 SW 3 5 1021.7 - 0.0 - - - - - - -
05/04:00am 15.6 CALM 0 0 1021.7 - 0.0 - - - - - - -
05/03:30am 15.7 CALM 0 0 1021.7 - 0.0 - - - - - - -
05/03:00am 15.6 S 2 4 1021.9 - 0.0 - - - - - - -
05/02:30am 15.6 S 4 7 1022.1 - 0.0 - - - - - - -
05/02:00am 15.9 SSW 4 7 1022.2 - 0.0 - - - - - - -
05/01:30am 15.9 SSW 3 4 1022.3 - 0.0 - - - - - - -
05/01:00am 15.9 S 4 5 1022.3 - 0.0 - - - - - - -
05/12:30am 16.1 SSW 4 5 1022.4 - 0.0 - - - - - - -
05/12:00am 16.2 SSW 5 7 1022.4 - 0.0 - - - - - - -
 
Date/Time
EDT
Temp

°C
Wind Pressure Rain
since 9am
mm
Weather Cloud Vis
km
Sea
Height
m
Swell
Dir
 
Speed
knots
Gust
knots
hPa Trend Height
m
Period
s
Dir
04/11:30pm 16.1 CALM 0 0 1022.4 - 0.0 - - - - - - -
04/11:00pm 16.2 SE 6 8 1022.4 - 0.0 - - - - - - -
04/10:30pm 16.1 SSE 8 10 1022.5 - 0.0 - - - - - - -
04/10:00pm 16.4 SSE 8 12 1022.4 - 0.0 - - - - - - -
04/09:30pm 16.6 S 7 11 1022.1 - 0.0 - - - - - - -
04/09:00pm 16.8 SSE 9 12 1021.6 - 0.0 - - - - - - -
04/08:30pm 17.1 SSE 9 13 1021.2 - 0.0 - - - - - - -
04/08:00pm 17.5 SE 9 13 1020.8 - 0.0 - - - - - - -
04/07:30pm 17.7 SE 11 15 1020.5 - 0.0 - - - - - - -
04/07:00pm 18.4 SE 10 14 1019.9 - 0.0 - - - - - - -
04/06:30pm 18.3 SE 13 17 1019.7 - 0.0 - - - - - - -
04/06:00pm 18.5 SE 12 17 1019.3 - 0.0 - - - - - - -
04/05:30pm 19.3 SE 12 16 1019.2 - 0.0 - - - - - - -
04/05:00pm 19.2 SE 13 17 1019.1 - 0.0 - - - - - - -
04/04:30pm 19.5 SE 12 16 1019.1 - 0.0 - - - - - - -
04/04:00pm 19.3 ESE 13 17 1019.1 - 0.0 - - - - - - -
04/03:30pm 19.2 ESE 14 19 1019.0 - 0.0 - - - - - - -
04/03:00pm 19.9 SE 14 19 1019.0 - 0.0 - - - - - - -
04/02:30pm 20.4 SE 11 15 1019.0 - 0.0 - - - - - - -
04/02:00pm 21.0 SE 11 13 1018.9 - 0.0 - - - - - - -
04/01:30pm 20.4 ESE 8 10 1019.1 - 0.0 - - - - - - -
04/01:00pm 20.0 ESE 8 11 1019.4 - 0.0 - - - - - - -
04/12:30pm 19.6 SE 9 11 1019.5 - 0.0 - - - - - - -
04/12:00pm 20.1 E 7 8 1019.4 - 0.0 - - - - - - -
04/11:30am 19.1 ENE 7 9 1019.5 - 0.0 - - - - - - -
04/11:00am 18.9 NE 6 8 1019.5 - 0.0 - - - - - - -
04/10:30am 18.3 NE 6 8 1019.3 - 0.0 - - - - - - -
04/10:00am 17.1 NE 6 8 1019.2 - 0.0 - - - - - - -
04/09:30am 17.1 NE 5 7 1019.0 - 0.0 - - - - - - -
04/09:00am 16.4 NE 5 8 1019.0 - 0.0 - - - - - - -
04/08:30am 15.7 NE 4 5 1018.8 - 0.0 - - - - - - -
04/08:00am 14.3 NE 1 4 1018.6 - 0.0 - - - - - - -
04/07:30am 12.7 WSW 4 5 1018.2 - 0.0 - - - - - - -
04/07:00am 11.5 W 4 6 1017.9 - 0.0 - - - - - - -
04/06:30am 10.6 W 5 7 1017.7 - 0.0 - - - - - - -
04/06:00am 11.1 WNW 4 6 1017.1 - 0.0 - - - - - - -

Other Formats:

Comma delimited format used in spreadsheet applications
http://www.bom.gov.au/fwo/IDT60701/IDT60701.94970.axf

JavaScript Object Notation format (JSON) in row-major order
http://www.bom.gov.au/fwo/IDT60701/IDT60701.94970.json